Time;durP1;ratioP1;P1;durP2;ratioP2;P2;SDS_P1;SDS_P2;PMS_P1;PMS_P2;Temp;Humidity;BMP_temperature;BMP_pressure;BME280_temperature;BME280_humidity;BME280_pressure;Samples;Min_cycle;Max_cycle;Signal;HPM_P1;HPM_P2
2022/07/31 00:00:49;;;;;;;9.40;8.80;;;;;;;;;;5040358;28;20487;-58
2022/07/31 00:03:14;;;;;;;11.10;10.40;;;;;;;;;;5042751;28;20033;-58
2022/07/31 00:05:39;;;;;;;11.32;10.63;;;;;;;;;;5041464;28;20041;-58
2022/07/31 00:08:05;;;;;;;13.63;12.82;;;;;;;;;;5037768;28;20098;-58
2022/07/31 00:10:30;;;;;;;14.20;13.30;;;;;;;;;;5040891;28;20117;-58
2022/07/31 00:12:56;;;;;;;10.30;9.65;;;;;;;;;;5039606;28;20454;-58
2022/07/31 00:15:21;;;;;;;12.30;11.52;;;;;;;;;;5037929;28;20040;-58
2022/07/31 00:17:47;;;;;;;12.30;11.55;;;;;;;;;;5042525;28;20099;-58
2022/07/31 00:20:15;;;;;;;14.23;13.38;;;;;;;;;;5044803;28;20021;-58
2022/07/31 00:22:42;;;;;;;14.00;13.20;;;;;;;;;;5037972;28;20514;-58
2022/07/31 00:25:09;;;;;;;12.40;11.70;;;;;;;;;;5041230;28;20132;-58
2022/07/31 00:27:35;;;;;;;11.23;10.52;;;;;;;;;;5039619;28;20546;-58
2022/07/31 00:30:00;;;;;;;11.02;10.32;;;;;;;;;;5037359;28;20121;-57
2022/07/31 00:32:26;;;;;;;9.45;8.75;;;;;;;;;;5035479;28;20107;-58
2022/07/31 00:34:51;;;;;;;7.97;7.38;;;;;;;;;;5039615;28;20091;-57
2022/07/31 00:37:16;;;;;;;6.95;6.45;;;;;;;;;;5037844;28;20491;-58
2022/07/31 00:39:42;;;;;;;11.75;10.95;;;;;;;;;;5039025;28;20036;-57
2022/07/31 00:42:20;;;;;;;7.05;6.55;;;;;;;;;;5041978;28;20033;-58
2022/07/31 00:44:46;;;;;;;7.80;7.20;;;;;;;;;;5042996;28;20048;-58
2022/07/31 00:47:12;;;;;;;10.85;10.15;;;;;;;;;;5038031;28;20035;-58
2022/07/31 00:49:37;;;;;;;13.23;12.43;;;;;;;;;;5038052;28;20136;-58
2022/07/31 00:52:03;;;;;;;13.35;12.55;;;;;;;;;;5040459;28;20061;-58
2022/07/31 00:54:28;;;;;;;15.60;14.70;;;;;;;;;;5043499;28;20032;-58
2022/07/31 00:56:54;;;;;;;18.65;17.55;;;;;;;;;;5041273;28;20478;-58
2022/07/31 00:59:19;;;;;;;17.98;16.88;;;;;;;;;;5044868;28;20049;-58
2022/07/31 01:01:44;;;;;;;16.40;15.50;;;;;;;;;;5040338;28;20566;-58
2022/07/31 01:04:11;;;;;;;17.00;16.05;;;;;;;;;;5039364;28;20503;-58
2022/07/31 01:06:37;;;;;;;18.42;17.42;;;;;;;;;;5040338;28;20035;-58
2022/07/31 01:09:02;;;;;;;19.55;18.42;;;;;;;;;;5034714;28;20029;-58
2022/07/31 01:11:46;;;;;;;17.42;16.42;;;;;;;;;;5038685;28;20460;-58
2022/07/31 01:14:14;;;;;;;17.10;16.13;;;;;;;;;;5038618;28;20037;-59
2022/07/31 01:16:45;;;;;;;15.38;14.50;;;;;;;;;;5040763;28;20037;-58
2022/07/31 01:19:20;;;;;;;17.17;16.17;;;;;;;;;;5041409;28;20455;-58
2022/07/31 01:21:57;;;;;;;16.40;15.43;;;;;;;;;;5040778;28;20044;-59
2022/07/31 01:24:22;;;;;;;12.02;11.32;;;;;;;;;;5039807;28;20027;-58
2022/07/31 01:26:57;;;;;;;12.82;11.88;;;;;;;;;;5045528;28;20111;-59
2022/07/31 01:29:28;;;;;;;13.90;13.10;;;;;;;;;;5047750;28;20061;-58
2022/07/31 01:32:02;;;;;;;14.10;13.25;;;;;;;;;;5037498;28;20047;-58
2022/07/31 01:34:33;;;;;;;12.43;11.73;;;;;;;;;;5040591;28;20037;-58
2022/07/31 01:37:07;;;;;;;;;;;;;;;;;;5044895;28;20397;-59
2022/07/31 01:39:34;;;;;;;9.57;8.98;;;;;;;;;;5039919;28;19928;-59
2022/07/31 01:42:03;;;;;;;13.27;12.48;;;;;;;;;;5037754;28;20040;-59
2022/07/31 01:44:30;;;;;;;12.55;11.75;;;;;;;;;;5040294;28;20029;-59
2022/07/31 01:46:57;;;;;;;13.02;12.20;;;;;;;;;;5040785;28;20073;-59
2022/07/31 01:49:24;;;;;;;15.50;14.60;;;;;;;;;;5038796;28;20056;-58
2022/07/31 01:51:49;;;;;;;14.75;13.82;;;;;;;;;;5044969;28;20029;-58
2022/07/31 01:54:17;;;;;;;15.00;14.10;;;;;;;;;;5045653;28;20036;-58
2022/07/31 01:56:46;;;;;;;14.88;14.00;;;;;;;;;;5046110;28;20124;-58
2022/07/31 01:59:13;;;;;;;15.23;14.32;;;;;;;;;;5046547;28;20040;-58
2022/07/31 02:01:39;;;;;;;14.13;13.32;;;;;;;;;;5047061;28;20362;-58
2022/07/31 02:04:06;;;;;;;16.33;15.43;;;;;;;;;;5040578;28;20362;-59
2022/07/31 02:06:32;;;;;;;14.38;13.55;;;;;;;;;;5043494;28;20505;-58
2022/07/31 02:08:59;;;;;;;13.30;12.50;;;;;;;;;;5040806;28;20109;-59
2022/07/31 02:11:25;;;;;;;11.88;11.18;;;;;;;;;;5042741;28;20037;-59
2022/07/31 02:13:52;;;;;;;12.68;11.77;;;;;;;;;;5042192;28;20047;-59
2022/07/31 02:16:18;;;;;;;11.23;10.52;;;;;;;;;;5042798;28;20046;-59
2022/07/31 02:18:48;;;;;;;9.85;9.25;;;;;;;;;;5044728;28;20103;-59
2022/07/31 02:21:14;;;;;;;9.48;8.88;;;;;;;;;;5046676;28;20021;-59
2022/07/31 02:23:39;;;;;;;10.02;9.43;;;;;;;;;;5041750;28;20037;-59
2022/07/31 02:26:06;;;;;;;12.48;11.75;;;;;;;;;;5041193;28;20032;-59
2022/07/31 02:28:33;;;;;;;13.00;12.15;;;;;;;;;;5043259;28;20025;-59
2022/07/31 02:31:00;;;;;;;11.55;10.85;;;;;;;;;;5045978;28;20476;-59
2022/07/31 02:33:26;;;;;;;11.75;11.05;;;;;;;;;;5042327;28;20052;-59
2022/07/31 02:35:56;;;;;;;11.50;10.80;;;;;;;;;;5045967;28;20413;-59
2022/07/31 02:38:25;;;;;;;12.25;11.45;;;;;;;;;;5046318;28;20021;-59
2022/07/31 02:40:55;;;;;;;10.07;9.48;;;;;;;;;;5041515;28;20044;-59
2022/07/31 02:43:20;;;;;;;9.65;9.05;;;;;;;;;;5040416;28;20096;-59
2022/07/31 02:45:46;;;;;;;9.13;8.52;;;;;;;;;;5038180;28;20048;-59
2022/07/31 02:48:12;;;;;;;10.98;10.27;;;;;;;;;;5039135;28;20162;-59
2022/07/31 02:50:38;;;;;;;10.40;9.80;;;;;;;;;;5041489;28;20080;-58
2022/07/31 02:53:04;;;;;;;11.18;10.48;;;;;;;;;;5041501;28;20116;-58
2022/07/31 02:55:30;;;;;;;11.20;10.50;;;;;;;;;;5043770;28;20017;-58
2022/07/31 02:57:55;;;;;;;10.63;9.95;;;;;;;;;;5042627;28;20039;-58
2022/07/31 03:00:21;;;;;;;11.02;10.32;;;;;;;;;;5042467;28;20634;-58
2022/07/31 03:02:50;;;;;;;10.05;9.45;;;;;;;;;;5037700;28;20028;-58
2022/07/31 03:05:16;;;;;;;12.02;11.32;;;;;;;;;;5042942;28;20052;-58
2022/07/31 03:07:43;;;;;;;13.07;12.27;;;;;;;;;;5042641;28;20079;-59
2022/07/31 03:10:09;;;;;;;14.45;13.55;;;;;;;;;;5044940;28;20452;-59
2022/07/31 03:12:38;;;;;;;14.95;13.85;;;;;;;;;;5041410;28;20042;-58
2022/07/31 03:15:08;;;;;;;16.83;15.90;;;;;;;;;;5039969;28;20075;-58
2022/07/31 03:17:36;;;;;;;17.15;16.20;;;;;;;;;;5041910;28;20072;-58
2022/07/31 03:20:02;;;;;;;17.77;16.77;;;;;;;;;;5039147;28;20052;-58
2022/07/31 03:22:27;;;;;;;19.90;18.80;;;;;;;;;;5040193;28;20024;-58
2022/07/31 03:24:54;;;;;;;19.65;18.58;;;;;;;;;;5040708;28;20087;-58
2022/07/31 03:27:20;;;;;;;20.35;19.25;;;;;;;;;;5040787;28;20036;-58
2022/07/31 03:29:45;;;;;;;20.80;19.63;;;;;;;;;;5041548;28;20467;-59
2022/07/31 03:32:11;;;;;;;22.10;20.90;;;;;;;;;;5040178;28;20061;-57
2022/07/31 03:34:36;;;;;;;22.10;20.90;;;;;;;;;;5040739;28;20039;-58
2022/07/31 03:37:01;;;;;;;21.60;20.42;;;;;;;;;;5041578;28;20747;-57
2022/07/31 03:39:27;;;;;;;19.08;17.77;;;;;;;;;;5043182;28;20469;-57
2022/07/31 03:41:54;;;;;;;19.48;18.40;;;;;;;;;;5040344;28;20049;-57
2022/07/31 03:44:20;;;;;;;21.52;20.33;;;;;;;;;;5040342;28;20029;-57
2022/07/31 03:46:45;;;;;;;19.60;18.50;;;;;;;;;;5036971;28;20032;-57
2022/07/31 03:49:11;;;;;;;21.17;20.00;;;;;;;;;;5041116;28;20226;-57
2022/07/31 03:51:36;;;;;;;20.02;18.92;;;;;;;;;;5037868;28;20087;-57
2022/07/31 03:54:02;;;;;;;19.90;18.80;;;;;;;;;;5041368;28;20055;-57
2022/07/31 03:56:28;;;;;;;21.55;20.38;;;;;;;;;;5040731;28;20114;-58
2022/07/31 03:58:53;;;;;;;19.55;18.48;;;;;;;;;;5036996;28;20025;-57
2022/07/31 04:01:20;;;;;;;18.25;17.23;;;;;;;;;;5038426;28;20397;-57
2022/07/31 04:03:45;;;;;;;18.90;17.88;;;;;;;;;;5035378;28;20574;-58
2022/07/31 04:06:11;;;;;;;19.65;18.58;;;;;;;;;;5038354;28;20120;-57
2022/07/31 04:08:36;;;;;;;22.50;21.27;;;;;;;;;;5037795;28;20068;-57
2022/07/31 04:11:01;;;;;;;22.85;21.63;;;;;;;;;;5039303;28;20060;-57
2022/07/31 04:13:27;;;;;;;23.42;22.17;;;;;;;;;;5035631;28;20108;-57
2022/07/31 04:15:52;;;;;;;27.13;25.70;;;;;;;;;;5037185;28;20037;-57
2022/07/31 04:18:18;;;;;;;26.08;24.70;;;;;;;;;;5043309;28;20113;-57
2022/07/31 04:20:43;;;;;;;24.58;23.27;;;;;;;;;;5039631;28;20481;-57
2022/07/31 04:23:09;;;;;;;26.38;24.98;;;;;;;;;;5037322;28;20036;-58
2022/07/31 04:25:35;;;;;;;25.08;23.75;;;;;;;;;;5037852;28;20033;-59
2022/07/31 04:28:00;;;;;;;26.27;24.90;;;;;;;;;;5041610;28;20033;-58
2022/07/31 04:30:25;;;;;;;23.40;22.10;;;;;;;;;;5041443;28;20068;-58
2022/07/31 04:32:51;;;;;;;30.67;29.08;;;;;;;;;;5041227;28;20113;-58
2022/07/31 04:35:16;;;;;;;29.67;28.13;;;;;;;;;;5040828;28;20021;-59
2022/07/31 04:37:41;;;;;;;28.55;26.98;;;;;;;;;;5037750;28;20037;-58
2022/07/31 04:40:09;;;;;;;21.52;20.38;;;;;;;;;;5039712;28;20029;-59
2022/07/31 04:42:34;;;;;;;26.30;24.88;;;;;;;;;;5036958;28;20100;-59
2022/07/31 04:45:00;;;;;;;26.88;25.45;;;;;;;;;;5042930;28;20478;-58
2022/07/31 04:47:25;;;;;;;24.08;22.77;;;;;;;;;;5041971;28;20040;-59
2022/07/31 04:49:51;;;;;;;26.27;24.88;;;;;;;;;;5037374;28;20029;-58
2022/07/31 04:52:16;;;;;;;28.52;26.92;;;;;;;;;;5040217;28;20021;-59
2022/07/31 04:54:42;;;;;;;30.45;28.85;;;;;;;;;;5038937;28;20025;-58
2022/07/31 04:57:07;;;;;;;25.35;23.92;;;;;;;;;;5036634;28;20028;-59
2022/07/31 04:59:33;;;;;;;31.83;30.15;;;;;;;;;;5039328;28;20658;-58
2022/07/31 05:01:58;;;;;;;32.15;30.45;;;;;;;;;;5037907;28;20055;-58
2022/07/31 05:04:25;;;;;;;29.30;27.75;;;;;;;;;;5038425;28;20202;-58
2022/07/31 05:06:51;;;;;;;28.23;26.75;;;;;;;;;;5039097;28;20025;-59
2022/07/31 05:09:21;;;;;;;31.17;29.55;;;;;;;;;;5036273;28;20116;-59
2022/07/31 05:11:47;;;;;;;23.38;22.08;;;;;;;;;;5036320;28;20029;-59
2022/07/31 05:14:15;;;;;;;23.73;22.45;;;;;;;;;;5038352;28;20110;-58
2022/07/31 05:16:40;;;;;;;26.70;25.25;;;;;;;;;;5038754;28;20063;-58
2022/07/31 05:19:06;;;;;;;31.13;29.52;;;;;;;;;;5041786;28;20680;-58
2022/07/31 05:21:31;;;;;;;23.98;22.67;;;;;;;;;;5037645;28;20064;-59
2022/07/31 05:23:59;;;;;;;19.00;17.95;;;;;;;;;;5039435;28;20742;-58
2022/07/31 05:26:25;;;;;;;20.52;19.38;;;;;;;;;;5035993;28;20021;-59
2022/07/31 05:28:54;;;;;;;21.33;20.17;;;;;;;;;;5034622;28;20598;-58
2022/07/31 05:31:20;;;;;;;22.05;20.80;;;;;;;;;;5033774;28;20024;-59
2022/07/31 05:33:47;;;;;;;16.17;15.27;;;;;;;;;;5039393;28;20029;-59
2022/07/31 05:36:13;;;;;;;16.33;15.43;;;;;;;;;;5039084;28;20060;-59
2022/07/31 05:38:38;;;;;;;14.73;13.82;;;;;;;;;;5037528;28;20113;-58
2022/07/31 05:41:03;;;;;;;12.23;11.43;;;;;;;;;;5041219;28;20033;-59
2022/07/31 05:43:29;;;;;;;12.70;11.90;;;;;;;;;;5035842;28;20458;-59
2022/07/31 05:45:54;;;;;;;12.52;11.63;;;;;;;;;;5040198;28;20044;-58
2022/07/31 05:48:20;;;;;;;12.93;12.20;;;;;;;;;;5040394;28;20029;-59
2022/07/31 05:50:47;;;;;;;16.30;15.38;;;;;;;;;;5043214;28;20121;-58
2022/07/31 05:53:16;;;;;;;11.25;10.55;;;;;;;;;;5039304;28;20017;-59
2022/07/31 05:55:45;;;;;;;13.85;13.05;;;;;;;;;;5036842;28;20052;-58
2022/07/31 05:58:11;;;;;;;12.93;12.15;;;;;;;;;;5039602;28;20032;-59
2022/07/31 06:00:37;;;;;;;12.50;11.70;;;;;;;;;;5037404;28;20078;-58
2022/07/31 06:03:03;;;;;;;9.73;9.13;;;;;;;;;;5039956;28;20033;-58
2022/07/31 06:05:28;;;;;;;9.35;8.75;;;;;;;;;;5039066;28;20069;-58
2022/07/31 06:07:55;;;;;;;12.20;11.40;;;;;;;;;;5037360;28;20783;-59
2022/07/31 06:10:21;;;;;;;10.73;10.05;;;;;;;;;;5038941;28;20565;-58
2022/07/31 06:12:46;;;;;;;18.73;17.73;;;;;;;;;;5043654;28;20156;-58
2022/07/31 06:15:12;;;;;;;13.65;12.75;;;;;;;;;;5044580;28;20057;-58
2022/07/31 06:17:38;;;;;;;13.93;13.13;;;;;;;;;;5042151;28;20032;-58
2022/07/31 06:20:04;;;;;;;14.50;13.70;;;;;;;;;;5038610;28;20174;-58
2022/07/31 06:22:30;;;;;;;15.10;14.20;;;;;;;;;;5036696;28;20044;-58
2022/07/31 06:24:55;;;;;;;15.80;14.88;;;;;;;;;;5037426;28;20096;-58
2022/07/31 06:27:21;;;;;;;15.48;14.57;;;;;;;;;;5039685;28;20171;-58
2022/07/31 06:29:46;;;;;;;19.25;18.17;;;;;;;;;;5044238;28;20899;-58
2022/07/31 06:32:12;;;;;;;21.67;20.45;;;;;;;;;;5041182;28;20045;-58
2022/07/31 06:34:37;;;;;;;20.15;18.95;;;;;;;;;;5039722;28;20043;-59
2022/07/31 06:37:02;;;;;;;24.65;23.35;;;;;;;;;;5042367;28;20033;-59
2022/07/31 06:39:28;;;;;;;27.52;26.10;;;;;;;;;;5041812;28;20025;-59
2022/07/31 06:41:53;;;;;;;27.75;26.25;;;;;;;;;;5044259;28;20529;-58
2022/07/31 06:44:19;;;;;;;24.95;23.63;;;;;;;;;;5041289;28;20037;-62
2022/07/31 06:46:45;;;;;;;29.92;28.38;;;;;;;;;;5046521;28;20530;-62
2022/07/31 06:49:11;;;;;;;26.63;25.20;;;;;;;;;;5047073;28;20550;-62
2022/07/31 06:51:36;;;;;;;25.30;23.95;;;;;;;;;;5046739;28;20028;-63
2022/07/31 06:54:05;;;;;;;26.55;25.15;;;;;;;;;;5044291;28;20039;-62
2022/07/31 06:56:31;;;;;;;24.48;23.17;;;;;;;;;;5041189;28;20119;-62
2022/07/31 06:58:57;;;;;;;32.05;30.33;;;;;;;;;;5039134;28;20047;-63
2022/07/31 07:01:22;;;;;;;35.15;33.33;;;;;;;;;;5037655;28;20021;-63
2022/07/31 07:03:47;;;;;;;22.98;21.77;;;;;;;;;;5041132;28;20023;-63
2022/07/31 07:06:13;;;;;;;30.90;29.30;;;;;;;;;;5041656;28;20021;-63
2022/07/31 07:08:38;;;;;;;20.10;19.00;;;;;;;;;;5039555;28;20462;-63
2022/07/31 07:11:04;;;;;;;33.08;31.17;;;;;;;;;;5040778;28;20064;-63
2022/07/31 07:13:29;;;;;;;21.77;20.58;;;;;;;;;;5044867;28;20036;-63
2022/07/31 07:15:55;;;;;;;11.93;11.23;;;;;;;;;;5044140;28;20108;-63
2022/07/31 07:18:21;;;;;;;16.98;15.98;;;;;;;;;;5043306;28;20599;-62
2022/07/31 07:20:50;;;;;;;14.50;13.45;;;;;;;;;;5046100;28;20131;-62
2022/07/31 07:23:15;;;;;;;11.02;10.32;;;;;;;;;;5038924;28;20037;-62
2022/07/31 07:25:41;;;;;;;10.07;9.48;;;;;;;;;;5039227;28;20056;-62
2022/07/31 07:28:07;;;;;;;8.25;7.75;;;;;;;;;;5041125;28;20078;-62
2022/07/31 07:30:34;;;;;;;18.13;17.13;;;;;;;;;;5042564;28;20091;-64
2022/07/31 07:32:59;;;;;;;12.13;11.43;;;;;;;;;;5049171;28;20044;-62
2022/07/31 07:35:25;;;;;;;11.93;11.23;;;;;;;;;;5047370;28;20029;-62
2022/07/31 07:37:51;;;;;;;13.10;12.32;;;;;;;;;;5035451;28;20501;-63
2022/07/31 07:40:16;;;;;;;11.75;11.05;;;;;;;;;;5043604;28;20092;-62
2022/07/31 07:42:42;;;;;;;14.38;13.52;;;;;;;;;;5042970;28;20116;-65
2022/07/31 07:45:09;;;;;;;16.63;15.52;;;;;;;;;;5039677;28;20060;-64
2022/07/31 07:47:35;;;;;;;14.95;14.05;;;;;;;;;;5036103;28;20029;-62
2022/07/31 07:50:00;;;;;;;13.93;13.13;;;;;;;;;;5045044;28;20034;-63
2022/07/31 07:52:26;;;;;;;11.00;10.30;;;;;;;;;;5038139;28;20087;-63
2022/07/31 07:54:51;;;;;;;15.35;14.45;;;;;;;;;;5040637;28;20033;-63
2022/07/31 07:57:19;;;;;;;28.02;26.55;;;;;;;;;;5041037;28;20033;-63
2022/07/31 07:59:45;;;;;;;23.13;21.88;;;;;;;;;;5041522;28;20045;-63
2022/07/31 08:02:11;;;;;;;34.75;32.95;;;;;;;;;;5038260;28;20033;-63
2022/07/31 08:04:37;;;;;;;43.33;41.13;;;;;;;;;;5039014;28;20082;-63
2022/07/31 08:07:02;;;;;;;50.30;47.72;;;;;;;;;;5037890;28;20463;-62
2022/07/31 08:09:29;;;;;;;34.20;32.45;;;;;;;;;;5038723;28;20051;-64
2022/07/31 08:11:54;;;;;;;41.13;38.92;;;;;;;;;;5036759;28;20124;-63
2022/07/31 08:14:20;;;;;;;16.80;15.80;;;;;;;;;;5041483;28;20103;-64
2022/07/31 08:16:45;;;;;;;32.00;30.23;;;;;;;;;;5040311;28;20041;-64
2022/07/31 08:19:10;;;;;;;33.72;31.98;;;;;;;;;;5035958;28;20033;-64
2022/07/31 08:21:36;;;;;;;34.00;32.25;;;;;;;;;;5039312;28;20465;-65
2022/07/31 08:24:02;;;;;;;20.38;19.27;;;;;;;;;;5042028;28;20021;-62
2022/07/31 08:27:22;;;;;;;14.20;13.38;;;;;;;;;;5034359;28;20578;-63
2022/07/31 08:29:13;;;;;;;16.75;15.82;;;;;;;;;;5039598;28;20022;-63
2022/07/31 08:31:38;;;;;;;11.35;10.65;;;;;;;;;;5025291;28;20721;-63
2022/07/31 08:34:04;;;;;;;18.73;16.70;;;;;;;;;;5044382;28;20059;-63
2022/07/31 08:36:29;;;;;;;28.17;26.67;;;;;;;;;;5038001;28;20188;-64
2022/07/31 08:38:54;;;;;;;52.35;49.65;;;;;;;;;;5036338;28;20085;-64
2022/07/31 08:41:20;;;;;;;33.38;31.65;;;;;;;;;;5036081;28;20116;-63
2022/07/31 08:43:45;;;;;;;51.70;48.90;;;;;;;;;;5035243;28;20425;-64
2022/07/31 08:46:12;;;;;;;32.00;30.33;;;;;;;;;;5036793;28;20029;-63
2022/07/31 08:48:40;;;;;;;31.80;30.17;;;;;;;;;;5041339;28;20047;-63
2022/07/31 08:51:06;;;;;;;57.55;54.58;;;;;;;;;;5041661;28;20037;-64
2022/07/31 08:53:35;;;;;;;50.53;47.97;;;;;;;;;;5040511;28;20032;-63
2022/07/31 08:56:02;;;;;;;67.13;63.83;;;;;;;;;;5041244;28;20036;-63
2022/07/31 08:58:28;;;;;;;74.90;71.20;;;;;;;;;;5039156;28;20373;-65
2022/07/31 09:00:53;;;;;;;75.45;71.70;;;;;;;;;;5044412;28;20156;-64
2022/07/31 09:03:19;;;;;;;84.13;79.97;;;;;;;;;;5036431;28;20037;-64
2022/07/31 09:05:44;;;;;;;91.60;87.05;;;;;;;;;;5043910;28;20072;-64
2022/07/31 09:08:10;;;;;;;86.95;82.65;;;;;;;;;;5043662;28;20057;-65
2022/07/31 09:10:35;;;;;;;93.30;88.70;;;;;;;;;;5039555;28;20071;-66
2022/07/31 09:13:12;;;;;;;88.63;84.28;;;;;;;;;;5033181;28;20021;-65
2022/07/31 09:15:37;;;;;;;92.25;87.75;;;;;;;;;;5038212;28;20068;-64
2022/07/31 09:18:03;;;;;;;91.70;87.13;;;;;;;;;;5040095;28;20487;-65
2022/07/31 09:20:29;;;;;;;87.32;83.00;;;;;;;;;;5037656;28;20055;-65
2022/07/31 09:23:06;;;;;;;93.55;88.95;;;;;;;;;;5043181;28;20023;-64
2022/07/31 09:25:31;;;;;;;77.75;73.90;;;;;;;;;;5040456;28;20057;-65
2022/07/31 09:28:02;;;;;;;86.25;82.00;;;;;;;;;;5038593;28;20701;-65
2022/07/31 09:30:28;;;;;;;62.47;59.35;;;;;;;;;;5040597;28;20336;-64
2022/07/31 09:32:53;;;;;;;61.50;58.45;;;;;;;;;;5041840;28;20223;-63
2022/07/31 09:35:18;;;;;;;57.78;54.83;;;;;;;;;;5040135;28;20044;-63
2022/07/31 09:37:47;;;;;;;30.20;28.60;;;;;;;;;;5037229;28;20490;-65
2022/07/31 09:40:13;;;;;;;50.28;47.75;;;;;;;;;;5041669;28;20125;-64
2022/07/31 09:42:44;;;;;;;46.33;44.00;;;;;;;;;;5018550;28;20060;-64
2022/07/31 09:45:20;;;;;;;69.97;66.47;;;;;;;;;;5032379;28;20045;-63
2022/07/31 09:47:46;;;;;;;38.00;36.03;;;;;;;;;;5037015;28;20029;-63
2022/07/31 09:50:13;;;;;;;33.47;31.73;;;;;;;;;;5040975;28;20033;-63
2022/07/31 09:52:38;;;;;;;42.45;40.15;;;;;;;;;;5042137;28;20036;-64
2022/07/31 09:55:14;;;;;;;38.50;36.50;;;;;;;;;;5040438;28;20505;-63
2022/07/31 09:57:51;;;;;;;39.63;37.58;;;;;;;;;;5039175;28;20025;-64
2022/07/31 10:00:17;;;;;;;33.50;31.75;;;;;;;;;;5038571;28;20104;-63
2022/07/31 10:02:42;;;;;;;54.90;52.10;;;;;;;;;;5044517;28;20108;-64
2022/07/31 10:05:10;;;;;;;49.88;47.35;;;;;;;;;;5044390;28;20107;-64
2022/07/31 10:07:37;;;;;;;45.95;43.58;;;;;;;;;;5044518;28;20052;-64
2022/07/31 10:10:05;;;;;;;37.92;35.92;;;;;;;;;;5043989;28;20024;-65
2022/07/31 10:12:33;;;;;;;43.40;41.10;;;;;;;;;;5042322;28;20032;-64
2022/07/31 10:15:08;;;;;;;44.17;41.88;;;;;;;;;;5041856;28;20029;-64
2022/07/31 10:17:38;;;;;;;38.85;36.88;;;;;;;;;;5040585;28;20041;-65
2022/07/31 10:20:05;;;;;;;43.45;41.25;;;;;;;;;;5038225;28;20410;-65
2022/07/31 10:22:45;;;;;;;34.35;32.55;;;;;;;;;;5042393;28;20164;-65
2022/07/31 10:25:29;;;;;;;35.28;33.38;;;;;;;;;;5046507;28;20050;-64
2022/07/31 10:27:56;;;;;;;32.67;30.95;;;;;;;;;;5040941;28;20106;-65
2022/07/31 10:30:22;;;;;;;37.03;35.13;;;;;;;;;;5042805;28;20036;-65
2022/07/31 10:32:49;;;;;;;37.03;35.13;;;;;;;;;;5039855;28;20047;-59
2022/07/31 10:35:15;;;;;;;39.70;37.70;;;;;;;;;;5040950;28;20177;-59
2022/07/31 10:37:40;;;;;;;33.25;31.52;;;;;;;;;;5040069;28;20036;-59
2022/07/31 10:40:06;;;;;;;37.28;35.38;;;;;;;;;;5043472;28;20635;-59
2022/07/31 10:42:48;;;;;;;33.95;32.22;;;;;;;;;;5040343;28;20495;-59
2022/07/31 10:45:14;;;;;;;39.83;37.83;;;;;;;;;;5039637;28;20506;-59
2022/07/31 10:47:40;;;;;;;38.35;36.38;;;;;;;;;;5041207;28;20029;-58
2022/07/31 10:50:06;;;;;;;40.30;38.15;;;;;;;;;;5039535;28;20414;-57
2022/07/31 10:52:36;;;;;;;46.22;43.88;;;;;;;;;;5042233;28;20494;-57
2022/07/31 10:55:13;;;;;;;51.80;49.17;;;;;;;;;;5042888;28;20016;-57
2022/07/31 10:57:39;;;;;;;54.10;51.35;;;;;;;;;;5040749;28;20057;-57
2022/07/31 11:00:12;;;;;;;60.25;57.17;;;;;;;;;;5042654;28;20067;-57
2022/07/31 11:02:38;;;;;;;86.95;82.60;;;;;;;;;;5042101;28;20045;-57
2022/07/31 11:05:07;;;;;;;75.13;71.40;;;;;;;;;;5037693;28;20651;-57
2022/07/31 11:07:33;;;;;;;65.32;61.85;;;;;;;;;;5039174;28;20037;-58
2022/07/31 11:10:28;;;;;;;66.68;63.35;;;;;;;;;;5038753;28;20489;-57
2022/07/31 11:13:07;;;;;;;75.78;72.00;;;;;;;;;;5035163;28;20044;-57
2022/07/31 11:15:36;;;;;;;58.10;55.15;;;;;;;;;;5040542;28;20601;-58
2022/07/31 11:18:17;;;;;;;61.55;58.45;;;;;;;;;;5039517;28;20036;-57
2022/07/31 11:20:47;;;;;;;45.97;43.63;;;;;;;;;;5038827;28;21380;-57
2022/07/31 11:23:15;;;;;;;54.17;51.47;;;;;;;;;;5037483;28;20378;-56
2022/07/31 11:25:41;;;;;;;49.97;47.47;;;;;;;;;;5040780;28;20052;-56
2022/07/31 11:28:20;;;;;;;53.78;51.05;;;;;;;;;;5038799;28;20090;-58
2022/07/31 11:30:46;;;;;;;48.63;46.13;;;;;;;;;;5037024;28;20039;-56
2022/07/31 11:33:11;;;;;;;41.92;39.80;;;;;;;;;;5036979;28;20075;-56
2022/07/31 11:35:38;;;;;;;48.60;46.08;;;;;;;;;;5038951;28;20513;-56
2022/07/31 11:38:03;;;;;;;46.65;44.30;;;;;;;;;;5043005;28;20032;-56
2022/07/31 11:40:29;;;;;;;66.60;63.10;;;;;;;;;;5045185;28;20461;-57
2022/07/31 11:42:56;;;;;;;67.45;64.05;;;;;;;;;;5041068;28;20115;-56
2022/07/31 11:45:21;;;;;;;59.08;56.13;;;;;;;;;;5037323;28;20026;-56
2022/07/31 11:47:47;;;;;;;76.78;72.93;;;;;;;;;;5038103;28;20029;-55
2022/07/31 11:50:14;;;;;;;67.15;63.78;;;;;;;;;;5037860;28;20037;-56
2022/07/31 11:52:43;;;;;;;73.13;69.47;;;;;;;;;;5041159;28;20022;-55
2022/07/31 11:55:12;;;;;;;69.80;66.32;;;;;;;;;;5038965;28;20049;-56
2022/07/31 11:57:39;;;;;;;81.80;77.72;;;;;;;;;;5041173;28;20571;-56
2022/07/31 12:00:13;;;;;;;92.25;87.70;;;;;;;;;;5043534;28;20033;-56
2022/07/31 12:02:43;;;;;;;75.70;71.93;;;;;;;;;;5040767;28;20055;-56
2022/07/31 12:05:12;;;;;;;85.13;80.93;;;;;;;;;;5041555;28;20025;-56
2022/07/31 12:07:41;;;;;;;77.55;73.72;;;;;;;;;;5037668;28;20076;-56
2022/07/31 12:10:12;;;;;;;72.10;68.53;;;;;;;;;;5040882;28;20548;-56
2022/07/31 12:12:38;;;;;;;78.80;74.88;;;;;;;;;;5039919;28;20037;-56
2022/07/31 12:15:18;;;;;;;78.53;74.63;;;;;;;;;;5039224;28;20119;-57
2022/07/31 12:17:45;;;;;;;78.88;74.97;;;;;;;;;;5037928;28;20029;-57
2022/07/31 12:20:12;;;;;;;75.53;71.78;;;;;;;;;;5037869;28;20025;-57
2022/07/31 12:22:38;;;;;;;76.38;72.53;;;;;;;;;;5038151;28;20037;-57
2022/07/31 12:25:08;;;;;;;76.75;72.93;;;;;;;;;;5036099;28;20030;-57
2022/07/31 12:27:34;;;;;;;75.55;71.80;;;;;;;;;;5038514;28;20118;-57
2022/07/31 12:29:59;;;;;;;72.93;69.28;;;;;;;;;;5038985;28;20029;-55
2022/07/31 12:32:27;;;;;;;74.38;70.68;;;;;;;;;;5040589;28;20138;-55
2022/07/31 12:35:01;;;;;;;73.45;69.75;;;;;;;;;;5041990;28;20052;-56
2022/07/31 12:37:27;;;;;;;79.97;75.97;;;;;;;;;;5036887;28;20183;-57
2022/07/31 12:39:54;;;;;;;86.85;82.55;;;;;;;;;;5041823;28;20137;-56
2022/07/31 12:42:29;;;;;;;82.93;78.80;;;;;;;;;;5038491;28;20453;-56
2022/07/31 12:44:57;;;;;;;75.50;71.70;;;;;;;;;;5035351;28;20037;-55
2022/07/31 12:47:36;;;;;;;77.32;73.43;;;;;;;;;;5038853;28;20048;-54
2022/07/31 12:50:02;;;;;;;87.65;83.30;;;;;;;;;;5042044;28;20077;-56
2022/07/31 12:52:30;;;;;;;81.20;77.18;;;;;;;;;;5041269;28;20037;-55
2022/07/31 12:54:56;;;;;;;76.30;72.53;;;;;;;;;;5037878;28;20112;-58
2022/07/31 12:57:21;;;;;;;76.15;72.35;;;;;;;;;;5038848;28;20029;-54
2022/07/31 12:59:46;;;;;;;81.90;77.85;;;;;;;;;;5035630;28;20159;-55
2022/07/31 13:02:12;;;;;;;80.53;76.53;;;;;;;;;;5038573;28;20064;-55
2022/07/31 13:04:37;;;;;;;73.10;69.45;;;;;;;;;;5038742;28;20048;-55
2022/07/31 13:07:03;;;;;;;78.22;74.35;;;;;;;;;;5037807;28;20603;-57
2022/07/31 13:09:28;;;;;;;73.85;70.05;;;;;;;;;;5042177;28;20714;-56
2022/07/31 13:11:54;;;;;;;77.55;73.65;;;;;;;;;;5037270;28;20084;-57
2022/07/31 13:14:22;;;;;;;76.03;72.10;;;;;;;;;;5039060;28;20373;-56
2022/07/31 13:16:49;;;;;;;77.03;73.22;;;;;;;;;;5037943;28;20441;-56
2022/07/31 13:19:14;;;;;;;75.57;71.85;;;;;;;;;;5037396;28;20301;-56
2022/07/31 13:21:40;;;;;;;80.72;76.75;;;;;;;;;;5036720;28;20309;-56
2022/07/31 13:24:07;;;;;;;68.25;64.85;;;;;;;;;;5037636;28;20791;-57
2022/07/31 13:26:34;;;;;;;73.13;69.47;;;;;;;;;;5037721;28;20489;-56
2022/07/31 13:28:59;;;;;;;68.68;65.28;;;;;;;;;;5035209;28;20447;-56
2022/07/31 13:31:24;;;;;;;60.40;57.40;;;;;;;;;;5037670;28;20048;-57
2022/07/31 13:33:50;;;;;;;60.75;57.70;;;;;;;;;;5039007;28;20036;-56
2022/07/31 13:36:15;;;;;;;60.75;57.63;;;;;;;;;;5041670;28;20044;-57
2022/07/31 13:38:41;;;;;;;54.50;51.80;;;;;;;;;;5039535;28;20029;-56
2022/07/31 13:43:51;;;;;;;51.10;48.50;;;;;;;;;;5043864;28;20045;-57
2022/07/31 13:46:21;;;;;;;48.58;46.08;;;;;;;;;;5044122;28;20106;-56
2022/07/31 13:48:47;;;;;;;52.20;49.60;;;;;;;;;;5040754;28;20509;-56
2022/07/31 13:51:13;;;;;;;50.00;47.50;;;;;;;;;;5043924;28;20785;-57
2022/07/31 13:53:39;;;;;;;57.13;54.22;;;;;;;;;;5043517;28;20331;-55
2022/07/31 13:56:05;;;;;;;56.97;53.97;;;;;;;;;;5043052;28;20341;-57
2022/07/31 13:58:30;;;;;;;55.67;52.88;;;;;;;;;;5037881;28;20033;-57
2022/07/31 14:00:56;;;;;;;65.82;62.53;;;;;;;;;;5041211;28;20450;-56
2022/07/31 14:03:22;;;;;;;69.72;66.28;;;;;;;;;;5038315;28;20392;-56
2022/07/31 14:05:48;;;;;;;75.63;71.88;;;;;;;;;;5041062;28;20079;-56
2022/07/31 14:08:13;;;;;;;75.45;71.68;;;;;;;;;;5041641;28;20036;-56
2022/07/31 14:10:38;;;;;;;80.13;76.15;;;;;;;;;;5046168;28;20068;-56
2022/07/31 14:13:04;;;;;;;75.70;71.97;;;;;;;;;;5038081;28;20035;-57
2022/07/31 14:15:29;;;;;;;84.13;79.95;;;;;;;;;;5041733;28;20033;-56
2022/07/31 14:17:55;;;;;;;83.15;79.07;;;;;;;;;;5041718;28;20029;-56
2022/07/31 14:20:20;;;;;;;92.20;87.68;;;;;;;;;;5043827;28;20037;-55